Time;durP1;ratioP1;P1;durP2;ratioP2;P2;SDS_P1;SDS_P2;PMS_P1;PMS_P2;Temp;Humidity;BMP_temperature;BMP_pressure;BME280_temperature;BME280_humidity;BME280_pressure;Samples;Min_cycle;Max_cycle;Signal;HPM_P1;HPM_P2
2020/12/17 00:02:12;;;;;;;14.35;8.65;;;;;;;14.35;56.20;101341.22;5064719;28;20122;-69
2020/12/17 00:04:38;;;;;;;13.63;8.68;;;;;;;13.96;57.55;101338.47;5063268;28;20043;-72
2020/12/17 00:07:04;;;;;;;14.45;7.95;;;;;;;13.79;57.76;101337.00;5068023;28;20036;-71
2020/12/17 00:09:29;;;;;;;14.02;7.95;;;;;;;13.96;57.10;101338.47;5069306;28;20031;-70
2020/12/17 00:11:56;;;;;;;12.52;7.55;;;;;;;13.88;57.63;101342.03;5067362;28;20640;-71
2020/12/17 00:14:22;;;;;;;15.38;8.63;;;;;;;13.85;57.42;101342.09;5069103;28;20131;-70
2020/12/17 00:16:48;;;;;;;17.40;8.52;;;;;;;14.12;56.83;101337.31;5068277;28;20036;-69
2020/12/17 00:19:13;;;;;;;13.85;7.65;;;;;;;14.18;56.63;101334.59;5070070;28;20036;-71
2020/12/17 00:21:38;;;;;;;12.38;8.20;;;;;;;14.36;56.33;101327.34;5069133;28;20051;-72
2020/12/17 00:24:04;;;;;;;17.33;9.13;;;;;;;14.39;56.19;101335.06;5070599;28;20045;-72
2020/12/17 00:26:30;;;;;;;17.90;8.07;;;;;;;14.29;56.54;101331.81;5067440;28;20032;-70
2020/12/17 00:28:55;;;;;;;13.38;8.13;;;;;;;14.45;55.91;101332.38;5069359;28;20432;-70
2020/12/17 00:31:22;;;;;;;15.52;9.35;;;;;;;14.39;55.80;101324.69;5072873;28;20491;-70
2020/12/17 00:33:47;;;;;;;11.95;7.80;;;;;;;14.37;56.06;101331.66;5073538;28;20063;-69
2020/12/17 00:36:20;;;;;;;13.25;7.18;;;;;;;14.07;56.98;101326.16;5068407;28;20143;-70
2020/12/17 00:38:46;;;;;;;14.63;8.20;;;;;;;14.38;56.10;101320.34;5065724;28;20432;-69
2020/12/17 00:41:13;;;;;;;13.30;8.23;;;;;;;14.35;55.82;101317.81;5070453;28;20475;-71
2020/12/17 00:43:39;;;;;;;17.27;8.48;;;;;;;14.50;55.55;101304.50;5071337;28;20039;-70
2020/12/17 00:46:04;;;;;;;18.88;9.57;;;;;;;14.30;55.94;101303.16;5073267;28;20024;-70
2020/12/17 00:48:30;;;;;;;14.80;9.38;;;;;;;14.36;55.93;101298.75;5070791;28;20032;-71
2020/12/17 00:50:55;;;;;;;15.55;9.10;;;;;;;13.88;57.13;101303.06;5070187;28;20085;-70
2020/12/17 00:53:20;;;;;;;14.10;8.95;;;;;;;14.28;56.16;101298.88;5070101;28;20094;-71
2020/12/17 00:55:46;;;;;;;15.27;9.98;;;;;;;14.12;56.10;101293.13;5071410;28;20611;-71
2020/12/17 00:58:11;;;;;;;16.30;8.32;;;;;;;14.40;55.49;101297.78;5069179;28;20033;-70
2020/12/17 01:00:37;;;;;;;15.00;8.65;;;;;;;14.14;56.46;101291.34;5070573;28;20024;-70
2020/12/17 01:03:02;;;;;;;14.68;9.27;;;;;;;14.40;55.83;101292.56;5069874;28;20394;-70
2020/12/17 01:05:28;;;;;;;16.33;9.25;;;;;;;14.45;55.09;101288.16;5069349;28;20037;-70
2020/12/17 01:07:53;;;;;;;13.75;9.07;;;;;;;14.35;56.01;101284.00;5066826;28;20107;-71
2020/12/17 01:10:19;;;;;;;15.63;8.32;;;;;;;14.17;56.26;101290.44;5069842;28;20293;-69
2020/12/17 01:12:44;;;;;;;15.13;9.70;;;;;;;14.28;56.04;101293.69;5069539;28;20048;-70
2020/12/17 01:15:10;;;;;;;15.38;8.70;;;;;;;14.27;55.75;101298.03;5067783;28;20521;-70
2020/12/17 01:17:35;;;;;;;12.75;8.65;;;;;;;13.85;56.83;101295.34;5069343;28;20043;-71
2020/12/17 01:20:01;;;;;;;16.88;8.10;;;;;;;14.26;55.79;101295.44;5065959;28;20478;-71
2020/12/17 01:22:26;;;;;;;14.77;7.85;;;;;;;13.77;57.64;101297.19;5067240;28;20036;-70
2020/12/17 01:24:52;;;;;;;16.38;9.55;;;;;;;14.12;56.40;101293.13;5086280;28;20039;-71
2020/12/17 01:27:17;;;;;;;12.65;8.15;;;;;;;14.31;55.99;101286.69;5069755;28;20401;-70
2020/12/17 01:29:43;;;;;;;16.02;9.80;;;;;;;14.53;55.16;101291.44;5073768;28;20032;-70
2020/12/17 01:32:08;;;;;;;17.48;8.45;;;;;;;14.33;55.90;101290.13;5088684;28;20916;-69
2020/12/17 01:34:34;;;;;;;17.58;9.73;;;;;;;14.36;55.54;101290.94;5067870;28;20045;-70
2020/12/17 01:36:59;;;;;;;12.98;8.55;;;;;;;14.46;55.23;101282.06;5068080;28;20139;-71
2020/12/17 01:39:25;;;;;;;17.00;9.32;;;;;;;14.20;55.84;101280.84;5067803;28;20033;-70
2020/12/17 01:41:51;;;;;;;17.40;9.45;;;;;;;14.21;56.20;101281.69;5068201;28;20087;-70
2020/12/17 01:44:17;;;;;;;15.82;8.48;;;;;;;14.19;56.14;101289.50;5068807;28;20032;-70
2020/12/17 01:46:42;;;;;;;17.65;9.57;;;;;;;14.31;56.02;101289.28;5068520;28;20853;-70
2020/12/17 01:49:09;;;;;;;16.85;8.23;;;;;;;14.40;55.49;101287.38;5068517;28;20051;-69
2020/12/17 01:51:34;;;;;;;15.98;9.02;;;;;;;14.42;55.61;101286.47;5068247;28;20043;-70
2020/12/17 01:54:00;;;;;;;14.70;8.50;;;;;;;14.47;55.30;101289.84;5068859;28;20017;-71
2020/12/17 01:56:27;;;;;;;12.25;7.85;;;;;;;14.71;54.75;101298.91;5066772;28;20432;-70
2020/12/17 01:59:22;;;;;;;15.00;8.63;;;;;;;14.44;55.74;101307.22;5083277;28;20401;-69
2020/12/17 02:01:49;;;;;;;13.38;7.90;;;;;;;14.49;55.43;101298.47;5063916;28;20424;-71
2020/12/17 02:04:20;;;;;;;16.02;8.85;;;;;;;14.38;56.01;101297.81;5087669;28;20024;-70
2020/12/17 02:06:47;;;;;;;15.02;7.82;;;;;;;14.59;55.04;101293.09;5057838;28;20028;-70
2020/12/17 02:09:16;;;;;;;17.00;9.25;;;;;;;14.37;55.56;101293.50;5077078;28;20465;-72
2020/12/17 02:11:55;;;;;;;19.08;9.27;;;;;;;13.97;57.13;101301.19;5076994;28;20020;-70
2020/12/17 02:14:21;;;;;;;16.25;8.77;;;;;;;14.32;55.73;101308.34;5077944;28;20064;-72
2020/12/17 02:16:47;;;;;;;15.23;9.52;;;;;;;14.55;55.32;101307.91;5077351;28;20451;-70
2020/12/17 02:19:12;;;;;;;19.42;8.68;;;;;;;14.15;56.34;101298.25;5077415;28;20063;-70
2020/12/17 02:21:38;;;;;;;16.85;9.07;;;;;;;14.59;55.05;101296.53;5074196;28;20115;-72
2020/12/17 02:24:04;;;;;;;16.50;8.68;;;;;;;14.33;56.08;101292.72;5069505;28;20029;-72
2020/12/17 02:26:29;;;;;;;14.40;8.90;;;;;;;14.46;55.66;101287.25;5082770;28;20040;-73
2020/12/17 02:28:55;;;;;;;16.90;9.35;;;;;;;14.21;56.52;101282.53;5076369;28;20114;-70
2020/12/17 02:31:24;;;;;;;14.75;8.77;;;;;;;14.53;55.29;101281.03;5049778;28;20047;-70
2020/12/17 02:33:50;;;;;;;15.43;8.00;;;;;;;14.47;55.46;101286.38;5062192;28;20778;-71
2020/12/17 02:36:15;;;;;;;14.90;8.18;;;;;;;14.38;55.88;101278.75;5065913;28;20044;-70
2020/12/17 02:38:45;;;;;;;16.50;9.07;;;;;;;14.23;56.16;101283.38;5065068;28;20044;-70
2020/12/17 02:41:11;;;;;;;14.65;8.70;;;;;;;14.36;56.23;101280.53;5066552;28;20036;-70
2020/12/17 02:43:37;;;;;;;18.65;9.32;;;;;;;14.22;56.21;101286.88;5064906;28;20417;-71
2020/12/17 02:46:03;;;;;;;18.67;8.75;;;;;;;14.20;56.28;101286.03;5083696;28;20051;-70
2020/12/17 02:48:29;;;;;;;17.30;9.13;;;;;;;14.19;56.39;101284.31;5067978;28;20040;-71
2020/12/17 02:50:54;;;;;;;14.57;9.10;;;;;;;14.01;56.78;101284.66;5063986;28;20044;-70
2020/12/17 02:53:19;;;;;;;14.80;8.00;;;;;;;14.09;56.67;101282.78;5068587;28;20505;-70
2020/12/17 02:55:45;;;;;;;15.13;8.93;;;;;;;14.42;55.86;101283.00;5085728;28;20060;-73
2020/12/17 02:58:11;;;;;;;14.20;8.85;;;;;;;14.15;56.31;101287.84;5069984;28;20039;-70
2020/12/17 03:00:36;;;;;;;15.73;8.98;;;;;;;14.27;56.55;101285.03;5069778;28;20779;-70
2020/12/17 03:03:02;;;;;;;14.13;8.90;;;;;;;14.35;56.17;101278.81;5069906;28;20028;-70
2020/12/17 03:05:28;;;;;;;17.23;9.32;;;;;;;14.29;56.61;101280.66;5069700;28;20047;-70
2020/12/17 03:07:54;;;;;;;15.70;9.02;;;;;;;13.93;57.75;101265.75;5070456;28;20040;-72
2020/12/17 03:10:20;;;;;;;16.58;9.48;;;;;;;14.26;56.44;101259.91;5085970;28;20471;-69
2020/12/17 03:12:46;;;;;;;17.15;8.50;;;;;;;14.32;56.39;101254.59;5069174;28;20051;-70
2020/12/17 03:15:12;;;;;;;16.05;8.98;;;;;;;14.42;56.15;101254.38;5053076;28;20036;-70
2020/12/17 03:17:39;;;;;;;18.33;8.98;;;;;;;14.02;57.66;101247.38;5070053;28;20040;-71
2020/12/17 03:20:07;;;;;;;15.93;9.35;;;;;;;13.61;58.99;101249.00;5070058;28;20074;-70
2020/12/17 03:22:33;;;;;;;17.50;9.23;;;;;;;14.44;56.11;101239.59;5070379;28;20040;-72
2020/12/17 03:24:58;;;;;;;14.75;8.52;;;;;;;14.21;56.78;101245.28;5054458;28;20774;-70
2020/12/17 03:27:24;;;;;;;15.93;8.65;;;;;;;14.24;56.65;101259.06;5075342;28;20032;-71
2020/12/17 03:29:49;;;;;;;16.80;9.25;;;;;;;13.92;57.71;101251.91;5067218;28;20028;-70
2020/12/17 03:32:15;;;;;;;15.30;9.35;;;;;;;14.11;57.45;101266.28;5066391;28;20518;-70
2020/12/17 03:34:41;;;;;;;17.92;9.60;;;;;;;14.20;57.51;101280.84;5061749;28;20085;-70
2020/12/17 03:37:08;;;;;;;14.52;9.15;;;;;;;14.22;57.18;101271.28;5067280;28;20044;-72
2020/12/17 03:39:35;;;;;;;18.75;8.30;;;;;;;13.98;58.01;101270.00;5050200;28;20033;-70
2020/12/17 03:42:01;;;;;;;18.73;8.38;;;;;;;14.30;57.12;101271.94;5065959;28;20664;-72
2020/12/17 03:44:27;;;;;;;19.20;9.25;;;;;;;14.20;57.42;101272.16;5065873;28;20040;-71
2020/12/17 03:46:53;;;;;;;14.18;8.57;;;;;;;14.30;56.95;101279.75;5063461;28;20306;-71
2020/12/17 03:49:18;;;;;;;16.17;9.30;;;;;;;14.24;57.14;101276.41;5063077;28;20080;-70
2020/12/17 03:51:44;;;;;;;14.30;7.88;;;;;;;14.40;56.44;101269.16;5068785;28;20036;-70
2020/12/17 03:54:09;;;;;;;16.90;8.90;;;;;;;14.42;56.87;101273.47;5082699;28;20490;-70
2020/12/17 03:56:35;;;;;;;15.20;8.75;;;;;;;14.38;56.46;101268.34;5068477;28;20040;-72
2020/12/17 03:59:01;;;;;;;19.95;9.52;;;;;;;14.18;56.98;101259.22;5067009;28;20539;-72
2020/12/17 04:01:26;;;;;;;18.00;9.63;;;;;;;14.37;56.62;101256.22;5068355;28;20165;-70
2020/12/17 04:03:52;;;;;;;14.27;8.48;;;;;;;14.39;56.77;101259.66;5064020;28;20044;-71
2020/12/17 04:06:17;;;;;;;16.17;8.98;;;;;;;14.38;56.84;101253.63;5065178;28;20191;-70
2020/12/17 04:08:43;;;;;;;16.10;8.35;;;;;;;14.27;57.17;101247.78;5084077;28;20045;-69
2020/12/17 04:11:09;;;;;;;17.58;9.43;;;;;;;14.14;57.22;101248.91;5067088;28;20017;-70
2020/12/17 04:13:36;;;;;;;16.92;9.52;;;;;;;14.40;56.88;101243.16;5068005;28;20124;-70
2020/12/17 04:16:02;;;;;;;17.90;9.00;;;;;;;14.36;56.92;101249.34;5047940;28;20076;-70
2020/12/17 04:18:27;;;;;;;19.23;9.98;;;;;;;14.45;56.38;101254.34;5065785;28;20064;-70
2020/12/17 04:20:53;;;;;;;16.15;9.20;;;;;;;14.30;56.81;101251.16;5066691;28;20067;-70
2020/12/17 04:23:18;;;;;;;19.30;9.23;;;;;;;14.02;58.07;101257.78;5064869;28;20068;-70
2020/12/17 04:25:44;;;;;;;15.73;8.73;;;;;;;14.10;57.77;101253.28;5072294;28;20062;-70
2020/12/17 04:28:09;;;;;;;15.88;8.63;;;;;;;14.30;57.06;101250.31;5080846;28;20696;-70
2020/12/17 04:30:35;;;;;;;13.27;7.65;;;;;;;14.31;57.04;101247.69;5067236;28;20035;-70
2020/12/17 04:33:00;;;;;;;17.88;8.75;;;;;;;14.44;56.52;101247.41;5066218;28;20024;-70
2020/12/17 04:35:26;;;;;;;18.80;10.00;;;;;;;14.27;57.02;101248.63;5066373;28;20056;-71
2020/12/17 04:37:52;;;;;;;17.65;8.48;;;;;;;14.39;56.71;101244.91;5066286;28;20033;-71
2020/12/17 04:40:17;;;;;;;17.58;10.13;;;;;;;14.25;57.32;101245.19;5082740;28;20084;-71
2020/12/17 04:42:47;;;;;;;25.30;10.10;;;;;;;14.14;57.73;101239.34;5066465;28;20048;-70
2020/12/17 04:45:12;;;;;;;17.00;9.60;;;;;;;14.20;57.36;101248.75;5094240;28;20072;-71
2020/12/17 04:47:39;;;;;;;22.60;9.50;;;;;;;14.19;57.22;101240.09;5065662;28;20040;-71
2020/12/17 04:50:07;;;;;;;18.75;10.32;;;;;;;14.02;58.29;101249.97;5051489;28;20117;-70
2020/12/17 04:52:38;;;;;;;21.75;10.32;;;;;;;14.17;57.42;101252.28;5061802;28;20032;-70
2020/12/17 04:55:05;;;;;;;15.80;9.75;;;;;;;14.11;57.53;101248.06;5069770;28;20060;-69
2020/12/17 04:57:32;;;;;;;19.63;9.52;;;;;;;14.09;57.56;101242.06;5068283;28;20048;-70
2020/12/17 04:59:59;;;;;;;22.40;9.95;;;;;;;14.07;57.86;101249.00;5069546;28;20044;-70
2020/12/17 05:02:25;;;;;;;17.23;9.43;;;;;;;14.12;57.53;101248.94;5068973;28;20047;-70
2020/12/17 05:04:54;;;;;;;15.07;7.72;;;;;;;14.09;57.85;101236.84;5066545;28;20090;-70
2020/12/17 05:07:24;;;;;;;19.95;9.50;;;;;;;14.11;57.51;101234.22;5063583;28;20051;-71
2020/12/17 05:09:50;;;;;;;20.60;9.88;;;;;;;14.07;57.78;101229.97;5068870;28;20032;-70
2020/12/17 05:12:17;;;;;;;19.65;10.23;;;;;;;14.06;57.91;101229.09;5084232;28;20502;-70
2020/12/17 05:14:42;;;;;;;21.45;11.30;;;;;;;13.94;58.13;101221.56;5068253;28;20729;-70
2020/12/17 05:17:09;;;;;;;17.92;10.63;;;;;;;13.92;58.45;101218.13;5068002;28;20036;-70
2020/12/17 05:19:35;;;;;;;19.13;9.95;;;;;;;13.87;58.62;101214.75;5067334;28;20903;-69
2020/12/17 05:22:04;;;;;;;19.60;10.63;;;;;;;14.00;57.95;101216.25;5083154;28;20055;-70
2020/12/17 05:24:30;;;;;;;19.73;10.02;;;;;;;13.84;58.69;101215.69;5073335;28;20102;-70
2020/12/17 05:26:57;;;;;;;19.70;10.00;;;;;;;14.09;57.67;101216.06;5065317;28;20040;-70
2020/12/17 05:29:23;;;;;;;23.10;10.73;;;;;;;14.11;57.42;101213.44;5068344;28;20043;-70
2020/12/17 05:31:49;;;;;;;17.45;10.48;;;;;;;14.09;57.82;101210.84;5067295;28;20047;-72
2020/12/17 05:34:15;;;;;;;20.13;10.68;;;;;;;14.20;57.67;101218.44;5066970;28;20040;-70
2020/12/17 05:36:42;;;;;;;18.23;10.32;;;;;;;14.16;57.45;101219.38;5066885;28;20033;-70
2020/12/17 05:39:18;;;;;;;22.50;9.88;;;;;;;14.05;58.02;101222.19;5050329;28;20591;-72
2020/12/17 05:41:50;;;;;;;18.92;10.68;;;;;;;13.90;58.58;101219.88;5062325;28;20074;-72
2020/12/17 05:44:18;;;;;;;18.80;9.25;;;;;;;14.03;58.35;101217.91;5084636;28;20456;-72
2020/12/17 05:46:48;;;;;;;20.23;10.20;;;;;;;14.05;57.95;101227.41;5048331;28;20040;-70
2020/12/17 05:49:28;;;;;;;18.60;11.00;;;;;;;13.94;58.42;101216.34;5067042;28;20040;-70
2020/12/17 05:52:14;;;;;;;18.55;8.98;;;;;;;14.16;57.46;101211.59;5064786;28;20025;-72
2020/12/17 05:54:43;;;;;;;18.15;10.30;;;;;;;14.13;57.80;101219.44;5067715;28;20112;-72
2020/12/17 05:57:11;;;;;;;18.88;9.57;;;;;;;14.15;58.05;101220.25;5060429;28;20040;-70
2020/12/17 05:59:37;;;;;;;20.55;11.02;;;;;;;13.99;58.31;101226.66;5068272;28;20049;-72
2020/12/17 06:02:22;;;;;;;22.15;10.77;;;;;;;14.20;57.59;101223.66;5067383;28;20078;-69
2020/12/17 06:05:06;;;;;;;19.90;10.90;;;;;;;14.10;57.88;101219.50;5069056;28;20547;-70
2020/12/17 06:07:45;;;;;;;25.08;10.55;;;;;;;13.98;57.97;101227.56;5067459;28;20044;-70
2020/12/17 06:10:21;;;;;;;20.58;11.27;;;;;;;14.21;57.75;101227.09;5063690;28;20028;-71
2020/12/17 06:12:52;;;;;;;16.92;9.02;;;;;;;14.05;58.39;101231.75;5065736;28;20029;-70
2020/12/17 06:15:38;;;;;;;18.58;10.20;;;;;;;14.02;58.58;101226.59;5067145;28;20047;-70
2020/12/17 06:18:03;;;;;;;17.58;10.82;;;;;;;14.21;57.73;101224.50;5048412;28;20032;-70
2020/12/17 06:20:31;;;;;;;20.55;9.27;;;;;;;14.18;57.87;101230.63;5068737;28;20386;-71
2020/12/17 06:23:02;;;;;;;18.80;10.10;;;;;;;14.23;57.61;101223.56;5073944;28;20051;-70
2020/12/17 06:25:30;;;;;;;18.95;9.73;;;;;;;14.25;57.53;101221.78;5066643;28;20545;-69
2020/12/17 06:27:56;;;;;;;20.17;10.27;;;;;;;14.15;58.14;101222.00;5082614;28;20457;-71
2020/12/17 06:30:24;;;;;;;20.67;10.93;;;;;;;14.19;57.69;101221.91;5068965;28;20064;-72
2020/12/17 06:32:53;;;;;;;21.77;10.65;;;;;;;14.23;58.16;101227.91;5063887;28;20037;-71
2020/12/17 06:35:26;;;;;;;20.55;9.32;;;;;;;14.25;58.14;101220.94;5065849;28;20036;-71
2020/12/17 06:37:54;;;;;;;17.90;9.10;;;;;;;14.28;57.69;101224.31;5067064;28;20032;-71
2020/12/17 06:40:27;;;;;;;21.58;10.27;;;;;;;13.99;59.03;101224.91;5067645;28;20044;-70
2020/12/17 06:42:53;;;;;;;19.55;10.32;;;;;;;14.24;58.24;101229.63;5066852;28;20060;-71
2020/12/17 06:45:32;;;;;;;22.30;10.65;;;;;;;13.94;59.17;101228.50;5068757;28;20036;-72
2020/12/17 06:47:58;;;;;;;26.70;13.15;;;;;;;14.17;58.30;101228.88;5067487;28;20071;-72
2020/12/17 06:50:28;;;;;;;16.45;9.88;;;;;;;14.34;57.88;101228.56;5068425;28;20121;-69
2020/12/17 06:53:12;;;;;;;18.50;10.18;;;;;;;14.12;59.06;101236.78;5066913;28;20047;-69
2020/12/17 06:55:51;;;;;;;20.40;10.60;;;;;;;14.21;58.69;101240.94;5059364;28;20129;-72
2020/12/17 06:58:24;;;;;;;17.52;9.80;;;;;;;13.93;59.29;101235.41;5061658;28;20479;-72
2020/12/17 07:00:52;;;;;;;17.42;9.50;;;;;;;13.91;59.70;101238.06;5060121;28;21420;-70
2020/12/17 07:03:40;;;;;;;20.25;10.25;;;;;;;14.03;59.74;101241.31;5061965;28;20048;-69
2020/12/17 07:06:16;;;;;;;17.10;9.80;;;;;;;14.18;59.13;101234.97;5065075;28;20036;-71
2020/12/17 07:08:43;;;;;;;17.38;10.70;;;;;;;14.08;59.61;101232.53;5065414;28;20090;-70
2020/12/17 07:11:36;;;;;;;17.70;9.73;;;;;;;14.23;59.25;101240.91;5064657;28;20140;-70
2020/12/17 07:14:02;;;;;;;;;;;;;;;14.11;59.87;101236.81;5053955;28;20040;-70
2020/12/17 07:16:30;;;;;;;18.63;11.18;;;;;;;14.12;59.95;101238.53;5065211;28;19916;-70
2020/12/17 07:19:26;;;;;;;16.90;9.60;;;;;;;14.24;59.20;101238.25;5061181;28;20167;-69
2020/12/17 07:22:01;;;;;;;17.40;10.50;;;;;;;14.10;59.84;101242.91;5043811;28;20064;-70
2020/12/17 07:24:29;;;;;;;26.60;11.75;;;;;;;14.21;59.52;101242.69;5068582;28;20683;-70
2020/12/17 07:26:59;;;;;;;31.55;15.88;;;;;;;14.09;59.99;101249.00;5067197;28;20028;-69
2020/12/17 07:29:36;;;;;;;16.45;10.88;;;;;;;14.31;59.24;101252.88;5066726;28;20144;-71
2020/12/17 07:32:36;;;;;;;18.67;11.18;;;;;;;14.33;59.20;101250.22;5064640;28;20036;-71
2020/12/17 07:35:08;;;;;;;18.13;10.13;;;;;;;14.22;59.57;101253.06;5064210;28;20073;-71
2020/12/17 07:37:45;;;;;;;16.20;9.90;;;;;;;14.33;59.64;101260.63;5064850;28;20084;-70
2020/12/17 07:40:33;;;;;;;20.38;10.10;;;;;;;14.40;59.49;101261.34;5079959;28;20115;-70
2020/12/17 07:43:05;;;;;;;20.15;9.60;;;;;;;14.47;59.08;101262.97;5081708;28;20024;-69
2020/12/17 07:45:41;;;;;;;21.05;12.02;;;;;;;14.41;59.16;101268.28;5067648;28;20045;-70
2020/12/17 07:48:46;;;;;;;16.42;10.38;;;;;;;14.56;58.73;101278.41;5082270;28;20127;-70
2020/12/17 07:51:15;;;;;;;18.10;10.40;;;;;;;14.57;58.81;101274.91;5082679;28;20064;-69
2020/12/17 07:53:45;;;;;;;22.85;11.18;;;;;;;14.26;59.81;101272.91;5065848;28;20043;-70
2020/12/17 07:56:12;;;;;;;23.30;11.27;;;;;;;13.74;61.77;101276.47;5065542;28;20063;-71
2020/12/17 07:58:38;;;;;;;19.65;10.15;;;;;;;14.39;59.58;101272.66;5066264;28;20075;-71
2020/12/17 08:01:05;;;;;;;19.13;9.75;;;;;;;14.46;59.33;101272.50;5083681;28;20096;-70
2020/12/17 08:04:00;;;;;;;21.77;10.38;;;;;;;14.02;61.15;101281.16;5066548;28;20048;-70
2020/12/17 08:06:27;;;;;;;18.17;11.05;;;;;;;14.21;60.55;101277.34;5049143;28;20167;-72
2020/12/17 08:08:58;;;;;;;18.67;10.82;;;;;;;14.19;60.54;101281.72;5068170;28;20034;-70
2020/12/17 08:11:25;;;;;;;19.65;10.90;;;;;;;13.91;61.48;101279.63;5064714;28;20035;-70
2020/12/17 08:14:15;;;;;;;23.65;10.90;;;;;;;14.36;60.21;101277.94;5050818;28;20032;-70
2020/12/17 08:16:41;;;;;;;21.17;10.90;;;;;;;14.49;59.80;101282.00;5049977;28;20032;-70
2020/12/17 08:19:06;;;;;;;21.42;11.38;;;;;;;14.33;60.51;101282.31;5067495;28;20043;-69
2020/12/17 08:21:32;;;;;;;21.58;11.05;;;;;;;14.40;60.02;101292.56;5066781;28;20143;-70
2020/12/17 08:23:58;;;;;;;22.65;13.15;;;;;;;13.95;61.22;101300.34;5067483;28;20032;-70
2020/12/17 08:26:28;;;;;;;23.00;11.02;;;;;;;14.32;60.20;101298.78;5068585;28;20619;-71
2020/12/17 08:28:55;;;;;;;19.77;11.38;;;;;;;14.35;60.05;101304.81;5070816;28;20111;-70
2020/12/17 08:31:23;;;;;;;20.88;11.75;;;;;;;14.38;60.09;101304.75;5067852;28;20409;-70
2020/12/17 08:33:54;;;;;;;19.85;10.65;;;;;;;13.85;61.96;101316.13;5073051;28;20036;-70
2020/12/17 08:36:23;;;;;;;24.00;10.67;;;;;;;13.81;62.04;101316.19;5062126;28;20048;-70
2020/12/17 08:39:04;;;;;;;21.10;11.73;;;;;;;13.77;62.37;101328.38;5071680;28;20032;-70
2020/12/17 08:41:33;;;;;;;15.73;9.98;;;;;;;13.86;61.71;101328.25;5070870;28;20413;-70
2020/12/17 08:44:04;;;;;;;18.90;10.20;;;;;;;14.18;61.14;101339.81;5069042;28;20046;-70
2020/12/17 08:46:33;;;;;;;20.75;10.25;;;;;;;13.97;61.78;101333.22;5069102;28;20044;-72
2020/12/17 08:49:08;;;;;;;18.77;10.40;;;;;;;14.14;61.18;101343.34;5070409;28;20032;-70
2020/12/17 08:51:38;;;;;;;16.92;9.88;;;;;;;13.62;62.83;101346.81;5084854;28;20043;-70
2020/12/17 08:54:04;;;;;;;13.45;9.20;;;;;;;13.85;61.62;101352.50;5066798;28;20042;-70
2020/12/17 08:56:30;;;;;;;13.45;9.48;;;;;;;13.85;62.13;101352.50;5071072;28;20033;-71
2020/12/17 08:59:02;;;;;;;17.67;8.32;;;;;;;13.57;62.54;101357.25;5070061;28;20030;-71
2020/12/17 09:01:32;;;;;;;13.02;7.65;;;;;;;13.17;63.68;101369.94;5070079;28;20108;-70
2020/12/17 09:03:58;;;;;;;16.23;8.77;;;;;;;13.35;63.59;101381.84;5052435;28;20506;-69
2020/12/17 09:06:27;;;;;;;15.98;9.10;;;;;;;13.90;61.48;101379.25;5069070;28;20070;-70
2020/12/17 09:08:53;;;;;;;16.27;9.40;;;;;;;13.75;61.89;101376.91;5069287;28;20056;-70
2020/12/17 09:11:38;;;;;;;15.65;8.50;;;;;;;13.87;60.72;101386.25;5070972;28;20032;-71
2020/12/17 09:14:12;;;;;;;15.75;8.00;;;;;;;13.75;61.35;101389.88;5086571;28;20119;-69
2020/12/17 09:16:40;;;;;;;14.30;9.25;;;;;;;13.99;60.99;101383.44;5066943;28;20036;-70
2020/12/17 09:19:08;;;;;;;18.58;9.82;;;;;;;13.93;61.20;101385.28;5068157;28;20032;-70
2020/12/17 09:21:59;;;;;;;17.55;9.43;;;;;;;14.12;60.12;101395.34;5068176;28;20653;-70
2020/12/17 09:24:29;;;;;;;13.77;8.80;;;;;;;14.06;60.44;101407.59;5075806;28;20055;-70
2020/12/17 09:26:56;;;;;;;15.88;9.43;;;;;;;13.58;61.80;101404.91;5066812;28;20115;-70
2020/12/17 09:29:21;;;;;;;14.60;8.93;;;;;;;13.65;61.61;101412.56;5069189;28;20036;-70
2020/12/17 09:31:47;;;;;;;13.75;8.60;;;;;;;13.85;60.88;101408.81;5065125;28;20043;-70
2020/12/17 09:34:16;;;;;;;16.52;9.32;;;;;;;13.80;60.81;101413.22;5065781;28;20482;-71
2020/12/17 09:36:56;;;;;;;13.18;8.40;;;;;;;13.73;61.48;101420.25;5046816;28;20040;-71
2020/12/17 09:39:22;;;;;;;17.60;8.90;;;;;;;13.75;61.02;101421.06;5081907;28;20036;-70
2020/12/17 09:41:56;;;;;;;18.55;8.50;;;;;;;13.56;61.75;101432.63;5078210;28;20040;-70
2020/12/17 09:44:34;;;;;;;16.60;9.15;;;;;;;13.44;61.85;101434.53;5080922;28;20032;-70
2020/12/17 09:47:01;;;;;;;17.27;9.90;;;;;;;13.22;62.10;101435.66;5061645;28;20044;-71
2020/12/17 09:49:32;;;;;;;14.45;8.40;;;;;;;13.63;60.94;101444.63;5063898;28;20032;-70
2020/12/17 09:52:00;;;;;;;18.75;10.13;;;;;;;13.74;61.37;101454.88;5060874;28;20048;-70
2020/12/17 09:54:25;;;;;;;14.18;8.32;;;;;;;13.60;61.65;101449.91;5078808;28;20032;-71
2020/12/17 09:57:06;;;;;;;14.23;8.45;;;;;;;13.84;60.54;101465.13;5065511;28;20250;-70
2020/12/17 09:59:33;;;;;;;14.43;9.13;;;;;;;13.99;60.39;101453.63;5062087;28;20614;-70
2020/12/17 10:02:03;;;;;;;13.27;8.93;;;;;;;13.77;60.48;101465.22;5063597;28;20035;-71
2020/12/17 10:04:29;;;;;;;9.55;5.97;;;;;;;13.64;60.68;101470.59;5061591;28;20132;-70
2020/12/17 10:06:55;;;;;;;11.20;6.93;;;;;;;13.59;60.59;101463.75;5080667;28;20442;-70
2020/12/17 10:09:21;;;;;;;11.05;6.30;;;;;;;13.40;60.99;101464.00;5068034;28;20044;-70
2020/12/17 10:11:51;;;;;;;12.10;6.32;;;;;;;13.79;59.92;101472.09;5084437;28;20039;-70
2020/12/17 10:14:18;;;;;;;9.52;6.13;;;;;;;13.76;60.43;101472.16;5083995;28;20616;-70
2020/12/17 10:16:44;;;;;;;9.57;5.82;;;;;;;13.68;60.55;101479.19;5066606;28;20138;-70
2020/12/17 10:19:10;;;;;;;11.65;6.75;;;;;;;13.59;60.67;101484.53;5067545;28;20058;-71
2020/12/17 10:21:36;;;;;;;10.60;4.75;;;;;;;13.71;60.21;101484.38;5083941;28;20050;-70
2020/12/17 10:24:03;;;;;;;8.48;5.85;;;;;;;13.11;61.86;101492.03;5084565;28;20033;-70
2020/12/17 10:26:29;;;;;;;8.73;4.38;;;;;;;13.86;60.42;101497.16;5084261;28;20071;-72
2020/12/17 10:28:55;;;;;;;7.32;5.25;;;;;;;14.21;59.66;101490.53;5082691;28;20486;-69
2020/12/17 10:31:21;;;;;;;8.52;4.97;;;;;;;13.81;60.30;101491.13;5083291;28;20035;-70
2020/12/17 10:33:46;;;;;;;8.63;4.70;;;;;;;14.32;59.17;101492.97;5062404;28;20036;-71
2020/12/17 10:36:12;;;;;;;5.70;3.55;;;;;;;14.96;57.76;101496.19;5066880;28;20609;-72
2020/12/17 10:38:37;;;;;;;8.00;3.55;;;;;;;15.17;56.80;101491.47;5065931;28;20035;-70
2020/12/17 10:41:03;;;;;;;4.82;3.38;;;;;;;14.95;57.40;101495.31;5067939;28;20111;-71
2020/12/17 10:43:29;;;;;;;6.72;3.38;;;;;;;14.65;57.74;101486.34;5065688;28;20142;-71
2020/12/17 10:45:54;;;;;;;5.57;3.13;;;;;;;14.70;56.96;101492.31;5067097;28;20095;-72
2020/12/17 10:48:20;;;;;;;5.95;3.33;;;;;;;14.87;57.33;101507.66;5083507;28;20044;-70
2020/12/17 10:50:47;;;;;;;6.15;3.78;;;;;;;14.73;56.73;101500.09;5083926;28;20186;-71
2020/12/17 10:53:13;;;;;;;6.38;2.53;;;;;;;14.12;58.22;101516.69;5049867;28;20059;-72
2020/12/17 10:55:38;;;;;;;4.47;2.65;;;;;;;14.17;58.30;101509.66;5068543;28;20127;-68
2020/12/17 10:58:06;;;;;;;5.20;3.10;;;;;;;14.48;57.90;101506.56;5082885;28;20730;-71
2020/12/17 11:00:31;;;;;;;4.68;2.45;;;;;;;13.68;59.35;101510.38;5066368;28;20063;-71
2020/12/17 11:02:57;;;;;;;4.88;3.20;;;;;;;13.54;60.10;101504.50;5068218;28;20086;-70
2020/12/17 11:05:23;;;;;;;4.55;2.65;;;;;;;14.17;58.55;101499.25;5065652;28;20656;-71
2020/12/17 11:07:48;;;;;;;3.78;2.45;;;;;;;14.84;57.21;101494.66;5083164;28;20028;-70
2020/12/17 11:10:14;;;;;;;4.78;3.10;;;;;;;14.51;57.47;101501.28;5065771;28;20031;-70
2020/12/17 11:12:39;;;;;;;4.60;3.00;;;;;;;14.61;57.29;101496.84;5066489;28;20417;-71
2020/12/17 11:15:05;;;;;;;4.25;2.25;;;;;;;14.52;57.49;101497.81;5067482;28;20035;-70
2020/12/17 11:17:30;;;;;;;4.53;2.95;;;;;;;14.29;57.84;101493.03;5064120;28;20064;-70
2020/12/17 11:19:56;;;;;;;6.40;3.13;;;;;;;14.32;58.28;101501.63;5065526;28;20448;-71
2020/12/17 11:22:21;;;;;;;6.88;2.70;;;;;;;14.65;57.66;101501.13;5082306;28;20040;-71
2020/12/17 11:24:47;;;;;;;5.38;3.08;;;;;;;13.88;59.49;101497.94;5065010;28;20028;-71